createdAt,value
2022-10-17T00:00:50.723Z,100928.88
2022-10-17T00:03:19.027Z,100923.38
2022-10-17T00:05:47.924Z,100919.00
2022-10-17T00:08:17.426Z,100912.19
2022-10-17T00:10:46.881Z,100912.91
2022-10-17T00:13:14.687Z,100912.91
2022-10-17T00:15:44.082Z,100909.25
2022-10-17T00:18:12.201Z,100907.81
2022-10-17T00:20:40.071Z,100917.56
2022-10-17T00:23:08.014Z,100912.50
2022-10-17T00:25:36.941Z,100910.34
2022-10-17T00:28:06.303Z,100915.34
2022-10-17T00:30:34.155Z,100914.72
2022-10-17T00:33:02.204Z,100920.31
2022-10-17T00:35:30.205Z,100906.38
2022-10-17T00:37:58.047Z,100911.88
2022-10-17T00:40:26.383Z,100913.00
2022-10-17T00:42:54.416Z,100913.91
2022-10-17T00:45:25.951Z,100897.41
2022-10-17T00:47:56.937Z,100905.16
2022-10-17T00:50:25.436Z,100896.91
2022-10-17T00:52:54.144Z,100895.78
2022-10-17T00:55:24.231Z,100897.88
2022-10-17T00:57:52.767Z,100904.03
2022-10-17T01:00:20.724Z,100901.94
2022-10-17T01:02:50.293Z,100900.63
2022-10-17T01:05:19.256Z,100898.53
2022-10-17T01:07:48.137Z,100901.88
2022-10-17T01:10:16.482Z,100896.41
2022-10-17T01:12:49.681Z,100888.16
2022-10-17T01:15:23.533Z,100893.34
2022-10-17T01:18:00.317Z,100889.28
2022-10-17T01:20:49.079Z,100885.41
2022-10-17T01:23:32.935Z,100886.25
2022-10-17T01:26:05.762Z,100893.88
2022-10-17T01:31:13.741Z,100899.34
2022-10-17T01:33:51.542Z,100898.53
2022-10-17T01:36:25.949Z,100890.91
2022-10-17T01:38:58.536Z,100889.88
2022-10-17T01:41:32.060Z,100886.31
2022-10-17T01:44:03.346Z,100875.03
2022-10-17T01:46:34.799Z,100881.75
2022-10-17T01:49:05.076Z,100879.00
2022-10-17T01:51:35.586Z,100879.50
2022-10-17T01:54:05.454Z,100873.50
2022-10-17T01:56:35.146Z,100869.75
2022-10-17T01:59:05.858Z,100869.25
2022-10-17T02:01:37.455Z,100868.63
2022-10-17T02:04:06.509Z,100880.25
2022-10-17T02:06:35.621Z,100866.81
2022-10-17T02:09:16.722Z,100863.25
2022-10-17T02:11:46.323Z,100861.00
2022-10-17T02:14:21.265Z,100864.25
2022-10-17T02:16:54.075Z,100863.84
2022-10-17T02:19:33.267Z,100863.41
2022-10-17T02:22:06.845Z,100863.59
2022-10-17T02:24:40.665Z,100858.28
2022-10-17T02:27:12.923Z,100859.34
2022-10-17T02:29:47.611Z,100862.44
2022-10-17T02:34:56.359Z,100855.06
2022-10-17T02:37:27.553Z,100852.31
2022-10-17T02:39:56.907Z,100852.81
2022-10-17T02:42:25.593Z,100844.91
2022-10-17T02:44:54.722Z,100846.53
2022-10-17T02:47:26.393Z,100840.72
2022-10-17T02:49:56.803Z,100845.00
2022-10-17T02:52:29.378Z,100841.13
2022-10-17T02:55:00.132Z,100859.34
2022-10-17T02:57:30.957Z,100850.09
2022-10-17T02:59:59.846Z,100849.28
2022-10-17T03:02:29.416Z,100844.22
2022-10-17T03:04:57.659Z,100847.91
2022-10-17T03:07:25.781Z,100849.00
2022-10-17T03:09:53.587Z,100844.66
2022-10-17T03:12:21.464Z,100848.50
2022-10-17T03:14:49.370Z,100849.13
2022-10-17T03:17:17.197Z,100859.69
2022-10-17T03:19:46.653Z,100850.66
2022-10-17T03:22:14.920Z,100855.94
2022-10-17T03:24:42.902Z,100853.13
2022-10-17T03:27:10.721Z,100856.66
2022-10-17T03:29:39.174Z,100851.59
2022-10-17T03:32:08.010Z,100852.00
2022-10-17T03:34:36.159Z,100858.28
2022-10-17T03:37:05.361Z,100864.91
2022-10-17T03:39:33.182Z,100855.75
2022-10-17T03:42:01.057Z,100863.03
2022-10-17T03:44:29.069Z,100864.47
2022-10-17T03:46:56.883Z,100874.75
2022-10-17T03:49:24.709Z,100867.22
2022-10-17T03:51:52.564Z,100875.25
2022-10-17T03:54:21.732Z,100879.72
2022-10-17T03:56:49.800Z,100875.97
2022-10-17T03:59:19.190Z,100881.22
2022-10-17T04:01:47.018Z,100885.72
2022-10-17T04:04:15.007Z,100881.22
2022-10-17T04:06:42.856Z,100874.13
2022-10-17T04:09:11.532Z,100880.25
2022-10-17T04:11:40.700Z,100882.34
2022-10-17T04:14:08.528Z,100886.13
2022-10-17T04:16:36.366Z,100872.31
2022-10-17T04:19:04.225Z,100886.13
2022-10-17T04:21:32.371Z,100888.06
2022-10-17T04:24:01.275Z,100899.56
2022-10-17T04:26:29.311Z,100894.25
2022-10-17T04:29:02.827Z,100892.22
2022-10-17T04:31:30.737Z,100893.66
2022-10-17T04:33:58.583Z,100897.81
2022-10-17T04:36:26.530Z,100896.28
2022-10-17T04:38:54.434Z,100886.94
2022-10-17T04:41:22.396Z,100891.91
2022-10-17T04:43:51.454Z,100902.28
2022-10-17T04:46:20.756Z,100902.56
2022-10-17T04:48:48.619Z,100898.50
2022-10-17T04:51:19.650Z,100893.63
2022-10-17T04:53:50.070Z,100901.25
2022-10-17T04:56:18.625Z,100897.91
2022-10-17T04:58:47.261Z,100905.63
2022-10-17T05:01:16.326Z,100903.38
2022-10-17T05:03:45.960Z,100902.78
2022-10-17T05:06:15.207Z,100900.34
2022-10-17T05:08:43.390Z,100908.88
2022-10-17T05:11:16.767Z,100905.53
2022-10-17T05:13:44.885Z,100901.97
2022-10-17T05:16:12.754Z,100915.19
2022-10-17T05:18:40.598Z,100906.94
2022-10-17T05:21:09.848Z,100907.25
2022-10-17T05:23:37.692Z,100913.34
2022-10-17T05:26:05.939Z,100909.19
2022-10-17T05:28:34.482Z,100920.97
2022-10-17T05:31:03.631Z,100915.78
2022-10-17T05:33:31.551Z,100925.94
2022-10-17T05:35:59.783Z,100924.53
2022-10-17T05:38:31.503Z,100925.13
2022-10-17T05:41:05.286Z,100928.97
2022-10-17T05:43:34.043Z,100921.25
2022-10-17T05:46:03.781Z,100930.53
2022-10-17T05:48:31.625Z,100932.47
2022-10-17T05:51:00.695Z,100940.63
2022-10-17T05:53:33.010Z,100952.91
2022-10-17T05:56:01.886Z,100949.06
2022-10-17T05:58:49.302Z,100953.44
2022-10-17T06:01:18.569Z,100951.91
2022-10-17T06:03:46.365Z,100949.25
2022-10-17T06:06:15.103Z,100947.31
2022-10-17T06:08:44.858Z,100952.81
2022-10-17T06:11:12.985Z,100947.66
2022-10-17T06:13:41.375Z,100956.28
2022-10-17T06:16:09.412Z,100958.41
2022-10-17T06:18:37.305Z,100967.25
2022-10-17T06:21:05.667Z,100964.59
2022-10-17T06:23:33.846Z,100969.69
2022-10-17T06:26:04.424Z,100966.72
2022-10-17T06:28:32.338Z,100980.72
2022-10-17T06:31:00.277Z,100985.50
2022-10-17T06:33:28.161Z,100995.25
2022-10-17T06:35:56.694Z,100996.94
2022-10-17T06:38:25.311Z,101000.22
2022-10-17T06:40:53.976Z,100997.03
2022-10-17T06:43:27.857Z,100996.78
2022-10-17T06:48:24.918Z,101002.41
2022-10-17T06:50:52.765Z,101002.97
2022-10-17T06:53:20.635Z,101003.38
2022-10-17T06:55:52.208Z,101003.59
2022-10-17T06:58:20.329Z,100995.88
2022-10-17T07:00:49.640Z,100996.59
2022-10-17T07:03:17.880Z,100996.81
2022-10-17T07:05:52.380Z,101002.06
2022-10-17T07:08:32.563Z,101006.63
2022-10-17T07:11:09.218Z,101010.84
2022-10-17T07:13:39.275Z,101016.09
2022-10-17T07:16:09.549Z,101012.31
2022-10-17T07:18:37.719Z,101011.72
2022-10-17T07:21:06.180Z,101015.19
2022-10-17T07:23:36.744Z,101020.22
2022-10-17T07:26:09.227Z,101022.84
2022-10-17T07:28:37.871Z,101020.06
2022-10-17T07:31:06.600Z,101013.44
2022-10-17T07:33:36.235Z,101009.50
2022-10-17T07:36:08.252Z,101017.09
2022-10-17T07:38:39.839Z,101026.22
2022-10-17T07:41:08.829Z,101019.97
2022-10-17T07:43:37.604Z,101012.22
2022-10-17T07:46:06.334Z,101014.41
2022-10-17T07:48:34.322Z,101011.81
2022-10-17T07:51:09.066Z,101012.59
2022-10-17T07:53:37.669Z,101012.59
2022-10-17T07:56:06.879Z,100996.63
2022-10-17T07:58:37.077Z,101002.66
2022-10-17T08:01:07.473Z,101020.09
2022-10-17T08:03:37.585Z,101015.06
2022-10-17T08:06:06.933Z,101019.34
2022-10-17T08:08:34.862Z,101024.72
2022-10-17T08:11:03.640Z,101023.94
2022-10-17T08:13:31.877Z,101025.47
2022-10-17T08:16:00.909Z,101015.09
2022-10-17T08:18:28.770Z,101012.16
2022-10-17T08:20:59.439Z,101016.06
2022-10-17T08:23:30.229Z,101016.66
2022-10-17T08:25:59.880Z,101002.66
2022-10-17T08:28:27.973Z,101017.13
2022-10-17T08:31:05.465Z,101022.09
2022-10-17T08:33:34.143Z,101032.25
2022-10-17T08:36:02.519Z,101039.84
2022-10-17T08:38:35.425Z,101035.09
2022-10-17T08:41:06.894Z,101045.97
2022-10-17T08:43:41.741Z,101040.03
2022-10-17T08:46:10.700Z,101052.91
2022-10-17T08:48:44.026Z,101042.72
2022-10-17T08:51:17.530Z,101044.41
2022-10-17T08:53:50.194Z,101049.22
2022-10-17T08:56:30.313Z,101049.28
2022-10-17T08:59:12.498Z,101051.66
2022-10-17T09:01:49.115Z,101052.47
2022-10-17T09:04:36.370Z,101060.00
2022-10-17T09:07:07.164Z,101053.81
2022-10-17T09:09:41.477Z,101052.72
2022-10-17T09:12:18.173Z,101053.81
2022-10-17T09:14:56.820Z,101049.56
2022-10-17T09:17:32.916Z,101049.44
2022-10-17T09:20:04.638Z,101064.56
2022-10-17T09:22:36.700Z,101068.38
2022-10-17T09:25:07.758Z,101070.13
2022-10-17T09:27:37.703Z,101079.50
2022-10-17T09:30:40.165Z,101083.78
2022-10-17T09:33:23.107Z,101087.22
2022-10-17T09:36:04.092Z,101095.41
2022-10-17T09:38:37.618Z,101086.97
2022-10-17T09:41:25.573Z,101095.41
2022-10-17T09:43:57.254Z,101102.41
2022-10-17T09:46:27.467Z,101108.44
2022-10-17T09:48:59.180Z,101102.63
2022-10-17T09:51:27.667Z,101107.72
2022-10-17T09:53:57.830Z,101116.78
2022-10-17T09:56:27.028Z,101124.47
2022-10-17T09:58:57.766Z,101123.44
2022-10-17T10:01:28.171Z,101127.44
2022-10-17T10:04:10.040Z,101127.38
2022-10-17T10:06:43.977Z,101124.22
2022-10-17T10:09:22.547Z,101134.84
2022-10-17T10:11:53.543Z,101134.41
2022-10-17T10:14:22.951Z,101145.75
2022-10-17T10:16:53.486Z,101155.59
2022-10-17T10:19:23.209Z,101159.75
2022-10-17T10:22:02.505Z,101159.19
2022-10-17T10:24:31.415Z,101161.13
2022-10-17T10:27:02.102Z,101178.59
2022-10-17T10:29:46.112Z,101181.59
2022-10-17T10:32:22.028Z,101184.66
2022-10-17T10:34:51.704Z,101187.97
2022-10-17T10:37:21.658Z,101182.84
2022-10-17T10:39:58.790Z,101193.28
2022-10-17T10:42:29.986Z,101192.25
2022-10-17T10:45:04.083Z,101186.25
2022-10-17T10:47:33.380Z,101181.03
2022-10-17T10:50:19.841Z,101180.41
2022-10-17T10:52:53.861Z,101192.78
2022-10-17T10:55:26.663Z,101185.84
2022-10-17T10:57:58.415Z,101181.06
2022-10-17T11:00:27.800Z,101193.50
2022-10-17T11:03:01.834Z,101198.84
2022-10-17T11:05:37.805Z,101213.56
2022-10-17T11:08:11.517Z,101211.75
2022-10-17T11:10:44.360Z,101218.53
2022-10-17T11:13:16.012Z,101221.69
2022-10-17T11:15:48.158Z,101231.16
2022-10-17T11:18:23.373Z,101241.94
2022-10-17T11:20:53.784Z,101241.94
2022-10-17T11:23:24.521Z,101244.72
2022-10-17T11:25:54.542Z,101245.00
2022-10-17T11:28:25.888Z,101257.28
2022-10-17T11:30:57.205Z,101241.22
2022-10-17T11:33:28.227Z,101240.94
2022-10-17T11:35:59.017Z,101246.66
2022-10-17T11:38:31.167Z,101232.88
2022-10-17T11:41:00.562Z,101239.94
2022-10-17T11:43:31.986Z,101226.50
2022-10-17T11:46:16.351Z,101220.91
2022-10-17T11:48:46.456Z,101203.59
2022-10-17T11:54:05.620Z,101209.88
2022-10-17T11:56:42.688Z,101224.59
2022-10-17T11:59:28.870Z,101219.28
2022-10-17T12:02:02.920Z,101228.03
2022-10-17T12:04:38.123Z,101214.03
2022-10-17T12:07:11.009Z,101210.78
2022-10-17T12:09:43.350Z,101227.94
2022-10-17T12:12:11.403Z,101226.75
2022-10-17T12:14:43.234Z,101233.41
2022-10-17T12:17:34.696Z,101238.44
2022-10-17T12:20:27.305Z,101237.53
2022-10-17T12:22:56.334Z,101238.78
2022-10-17T12:25:26.165Z,101239.47
2022-10-17T12:28:04.007Z,101239.31
2022-10-17T12:30:32.232Z,101248.97
2022-10-17T12:33:09.144Z,101247.66
2022-10-17T12:35:38.583Z,101258.09
2022-10-17T12:38:21.488Z,101244.25
2022-10-17T12:40:53.779Z,101250.50
2022-10-17T12:43:42.724Z,101263.94
2022-10-17T12:46:12.776Z,101241.00
2022-10-17T12:49:04.607Z,101252.94
2022-10-17T12:52:05.399Z,101254.06
2022-10-17T12:54:47.515Z,101259.03
2022-10-17T12:57:26.767Z,101265.66
2022-10-17T12:59:57.960Z,101258.81
2022-10-17T13:02:29.034Z,101254.44
2022-10-17T13:05:04.373Z,101267.81
2022-10-17T13:07:34.608Z,101265.34
2022-10-17T13:10:05.154Z,101269.00
2022-10-17T13:12:38.898Z,101264.34
2022-10-17T13:15:09.346Z,101282.13
2022-10-17T13:17:40.598Z,101285.06
2022-10-17T13:20:25.571Z,101283.81
2022-10-17T13:22:58.161Z,101284.81
2022-10-17T13:25:27.019Z,101296.25
2022-10-17T13:28:05.439Z,101303.06
2022-10-17T13:30:35.383Z,101309.06
2022-10-17T13:33:04.014Z,101301.91
2022-10-17T13:35:58.783Z,101313.06
2022-10-17T13:38:25.414Z,101310.88
2022-10-17T13:41:01.375Z,101313.66
2022-10-17T13:43:34.029Z,101326.03
2022-10-17T13:46:25.636Z,101317.00
2022-10-17T13:48:53.533Z,101322.75
2022-10-17T13:51:23.132Z,101313.72
2022-10-17T13:53:51.001Z,101324.22
2022-10-17T13:56:29.856Z,101326.41
2022-10-17T13:58:59.865Z,101319.53
2022-10-17T14:01:28.766Z,101327.00
2022-10-17T14:04:08.516Z,101325.22
2022-10-17T14:06:45.022Z,101323.88
2022-10-17T14:09:21.881Z,101332.00
2022-10-17T14:11:58.239Z,101327.88
2022-10-17T14:14:27.094Z,101338.09
2022-10-17T14:16:55.273Z,101337.88
2022-10-17T14:19:25.965Z,101340.28
2022-10-17T14:21:56.954Z,101340.50
2022-10-17T14:24:29.242Z,101339.91
2022-10-17T14:26:58.898Z,101348.38
2022-10-17T14:29:28.300Z,101345.19
2022-10-17T14:32:00.860Z,101339.03
2022-10-17T14:34:30.900Z,101338.72
2022-10-17T14:37:00.168Z,101346.34
2022-10-17T14:39:29.019Z,101335.47
2022-10-17T14:42:00.751Z,101350.47
2022-10-17T14:44:32.643Z,101348.84
2022-10-17T14:47:18.366Z,101365.66
2022-10-17T14:49:51.120Z,101353.56
2022-10-17T14:52:28.252Z,101358.97
2022-10-17T14:54:56.743Z,101367.78
2022-10-17T14:57:29.336Z,101367.56
2022-10-17T14:59:57.861Z,101379.22
2022-10-17T15:02:25.786Z,101389.84
2022-10-17T15:04:53.705Z,101384.69
2022-10-17T15:07:22.124Z,101392.28
2022-10-17T15:09:52.133Z,101402.47
2022-10-17T15:12:21.933Z,101403.38
2022-10-17T15:14:50.674Z,101410.91
2022-10-17T15:17:20.849Z,101410.09
2022-10-17T15:19:50.417Z,101426.25
2022-10-17T15:22:18.676Z,101422.66
2022-10-17T15:24:47.099Z,101419.66
2022-10-17T15:27:17.618Z,101426.00
2022-10-17T15:29:45.604Z,101424.31
2022-10-17T15:32:13.511Z,101423.50
2022-10-17T15:34:41.640Z,101424.13
2022-10-17T15:37:16.946Z,101421.22
2022-10-17T15:39:45.752Z,101434.63
2022-10-17T15:42:13.740Z,101425.16
2022-10-17T15:44:44.436Z,101421.88
2022-10-17T15:47:19.458Z,101421.25
2022-10-17T15:49:47.538Z,101423.72
2022-10-17T15:52:15.433Z,101415.41
2022-10-17T15:54:43.346Z,101429.16
2022-10-17T15:57:16.811Z,101438.78
2022-10-17T15:59:47.127Z,101436.00
2022-10-17T16:02:15.625Z,101449.03
2022-10-17T16:04:43.744Z,101451.53
2022-10-17T16:07:11.761Z,101459.69
2022-10-17T16:09:40.012Z,101468.78
2022-10-17T16:12:13.241Z,101474.50
2022-10-17T16:14:41.349Z,101475.16
2022-10-17T16:17:13.783Z,101485.72
2022-10-17T16:19:41.905Z,101486.91
2022-10-17T16:22:12.871Z,101497.28
2022-10-17T16:24:40.850Z,101508.53
2022-10-17T16:27:09.098Z,101509.94
2022-10-17T16:29:37.176Z,101513.19
2022-10-17T16:32:05.140Z,101515.50
2022-10-17T16:34:34.447Z,101524.09
2022-10-17T16:37:02.470Z,101522.78
2022-10-17T16:39:30.398Z,101514.16
2022-10-17T16:41:58.771Z,101514.78
2022-10-17T16:44:26.773Z,101514.44
2022-10-17T16:46:54.790Z,101509.06
2022-10-17T16:49:22.743Z,101502.38
2022-10-17T16:51:52.086Z,101506.59
2022-10-17T16:54:20.134Z,101505.97
2022-10-17T16:56:49.044Z,101516.31
2022-10-17T16:59:17.101Z,101529.31
2022-10-17T17:01:45.096Z,101525.38
2022-10-17T17:04:13.017Z,101527.66
2022-10-17T17:06:41.418Z,101526.38
2022-10-17T17:09:10.891Z,101524.75
2022-10-17T17:11:38.967Z,101531.53
2022-10-17T17:14:10.009Z,101526.38
2022-10-17T17:16:38.129Z,101526.69
2022-10-17T17:19:08.214Z,101526.50
2022-10-17T17:21:36.705Z,101526.31
2022-10-17T17:24:05.127Z,101526.06
2022-10-17T17:26:36.024Z,101519.53
2022-10-17T17:29:04.350Z,101523.06
2022-10-17T17:31:33.416Z,101526.78
2022-10-17T17:34:01.654Z,101526.91
2022-10-17T17:36:30.169Z,101522.38
2022-10-17T17:38:58.978Z,101529.03
2022-10-17T17:41:27.349Z,101539.09
2022-10-17T17:43:57.031Z,101544.66
2022-10-17T17:46:25.466Z,101559.81
2022-10-17T17:48:54.338Z,101558.66
2022-10-17T17:51:29.037Z,101561.44
2022-10-17T17:53:58.394Z,101566.66
2022-10-17T17:56:27.164Z,101571.66
2022-10-17T17:58:56.110Z,101573.53
2022-10-17T18:01:26.200Z,101583.09
2022-10-17T18:03:54.801Z,101593.81
2022-10-17T18:06:23.353Z,101589.72
2022-10-17T18:08:55.247Z,101588.28
2022-10-17T18:11:23.273Z,101592.00
2022-10-17T18:13:54.248Z,101580.94
2022-10-17T18:16:22.164Z,101580.31
2022-10-17T18:18:51.516Z,101583.59
2022-10-17T18:21:19.353Z,101590.75
2022-10-17T18:23:48.089Z,101586.34
2022-10-17T18:26:16.480Z,101599.66
2022-10-17T18:28:45.315Z,101594.88
2022-10-17T18:31:15.316Z,101603.66
2022-10-17T18:33:44.698Z,101613.19
2022-10-17T18:36:14.967Z,101609.13
2022-10-17T18:38:43.303Z,101611.19
2022-10-17T18:41:12.397Z,101615.09
2022-10-17T18:43:41.078Z,101616.41
2022-10-17T18:46:13.910Z,101616.59
2022-10-17T18:48:44.299Z,101607.81
2022-10-17T18:51:12.615Z,101606.19
2022-10-17T18:53:42.246Z,101607.13
2022-10-17T18:56:10.473Z,101613.56
2022-10-17T18:58:38.989Z,101617.25
2022-10-17T19:01:07.820Z,101621.97
2022-10-17T19:03:35.907Z,101624.41
2022-10-17T19:06:03.963Z,101627.66
2022-10-17T19:08:31.813Z,101630.75
2022-10-17T19:11:06.400Z,101644.03
2022-10-17T19:13:34.522Z,101636.47
2022-10-17T19:16:05.462Z,101639.34
2022-10-17T19:18:33.424Z,101649.16
2022-10-17T19:21:04.352Z,101645.88
2022-10-17T19:23:32.356Z,101646.41
2022-10-17T19:26:02.491Z,101643.13
2022-10-17T19:28:31.799Z,101646.09
2022-10-17T19:30:59.699Z,101639.25
2022-10-17T19:35:57.217Z,101644.75
2022-10-17T19:38:25.077Z,101633.84
2022-10-17T19:40:53.054Z,101643.63
2022-10-17T19:43:21.222Z,101645.41
2022-10-17T19:45:56.521Z,101644.38
2022-10-17T19:48:26.672Z,101642.25
2022-10-17T19:50:55.490Z,101644.69
2022-10-17T19:53:24.077Z,101642.56
2022-10-17T19:55:52.127Z,101645.72
2022-10-17T19:58:20.639Z,101655.22
2022-10-17T20:00:48.645Z,101658.59
2022-10-17T20:03:18.255Z,101659.22
2022-10-17T20:05:46.354Z,101652.88
2022-10-17T20:08:14.369Z,101654.00
2022-10-17T20:10:42.396Z,101650.53
2022-10-17T20:13:10.813Z,101660.47
2022-10-17T20:15:39.178Z,101662.09
2022-10-17T20:18:07.848Z,101661.44
2022-10-17T20:20:37.139Z,101671.38
2022-10-17T20:23:05.620Z,101672.81
2022-10-17T20:25:34.829Z,101661.97
2022-10-17T20:28:02.828Z,101666.78
2022-10-17T20:30:30.850Z,101675.59
2022-10-17T20:32:58.863Z,101677.00
2022-10-17T20:35:27.129Z,101672.06
2022-10-17T20:37:56.489Z,101673.19
2022-10-17T20:40:39.699Z,101676.56
2022-10-17T20:43:08.335Z,101678.19
2022-10-17T20:45:50.829Z,101672.69
2022-10-17T20:48:20.169Z,101669.91
2022-10-17T20:50:48.770Z,101672.69
2022-10-17T20:53:35.948Z,101665.31
2022-10-17T20:56:06.058Z,101664.41
2022-10-17T20:58:33.979Z,101667.78
2022-10-17T21:01:05.624Z,101673.28
2022-10-17T21:03:35.539Z,101670.84
2022-10-17T21:06:03.416Z,101671.75
2022-10-17T21:08:32.611Z,101683.09
2022-10-17T21:11:07.877Z,101682.25
2022-10-17T21:13:36.056Z,101682.25
2022-10-17T21:16:08.136Z,101690.22
2022-10-17T21:18:36.302Z,101683.47
2022-10-17T21:21:07.894Z,101696.88
2022-10-17T21:23:37.518Z,101712.06
2022-10-17T21:26:07.096Z,101709.53
2022-10-17T21:28:35.550Z,101719.22
2022-10-17T21:31:10.837Z,101718.19
2022-10-17T21:33:38.979Z,101721.84
2022-10-17T21:36:07.142Z,101723.88
2022-10-17T21:38:37.427Z,101716.59
2022-10-17T21:41:05.823Z,101710.56
2022-10-17T21:43:34.127Z,101719.97
2022-10-17T21:46:02.936Z,101716.78
2022-10-17T21:48:30.875Z,101719.53
2022-10-17T21:51:00.069Z,101716.84
2022-10-17T21:53:27.925Z,101713.06
2022-10-17T21:55:59.374Z,101725.19
2022-10-17T21:58:27.360Z,101738.47
2022-10-17T22:00:55.597Z,101724.16
2022-10-17T22:03:23.568Z,101734.66
2022-10-17T22:06:06.909Z,101727.44
2022-10-17T22:08:42.459Z,101739.50
2022-10-17T22:11:12.762Z,101737.84
2022-10-17T22:13:40.891Z,101736.66
2022-10-17T22:16:10.165Z,101727.44
2022-10-17T22:18:38.367Z,101727.72
2022-10-17T22:21:07.290Z,101731.09
2022-10-17T22:23:35.816Z,101727.28
2022-10-17T22:26:03.845Z,101719.44
2022-10-17T22:28:33.352Z,101724.94
2022-10-17T22:31:01.216Z,101723.59
2022-10-17T22:33:29.454Z,101728.28
2022-10-17T22:35:57.285Z,101729.69
2022-10-17T22:38:25.118Z,101727.25
2022-10-17T22:40:52.951Z,101733.56
2022-10-17T22:43:20.823Z,101740.19
2022-10-17T22:45:54.353Z,101743.25
2022-10-17T22:48:22.684Z,101749.34
2022-10-17T22:50:50.694Z,101744.94
2022-10-17T22:53:23.509Z,101743.91
2022-10-17T22:55:51.963Z,101739.81
2022-10-17T22:58:19.753Z,101747.00
2022-10-17T23:00:47.581Z,101751.19
2022-10-17T23:03:17.151Z,101751.66
2022-10-17T23:05:45.342Z,101749.13
2022-10-17T23:08:13.781Z,101753.81
2022-10-17T23:10:42.004Z,101751.56
2022-10-17T23:13:09.903Z,101755.97
2022-10-17T23:15:37.683Z,101756.94
2022-10-17T23:18:05.527Z,101755.91
2022-10-17T23:20:34.844Z,101752.03
2022-10-17T23:23:02.703Z,101751.13
2022-10-17T23:25:30.864Z,101749.78
2022-10-17T23:27:58.647Z,101743.69
2022-10-17T23:30:26.729Z,101742.06
2022-10-17T23:32:54.780Z,101744.22
2022-10-17T23:35:22.569Z,101746.38
2022-10-17T23:37:51.711Z,101745.75
2022-10-17T23:40:19.557Z,101747.38
2022-10-17T23:42:47.368Z,101745.16
2022-10-17T23:45:15.426Z,101752.53
2022-10-17T23:47:43.453Z,101750.22
2022-10-17T23:50:11.264Z,101758.47
2022-10-17T23:52:39.056Z,101756.25
2022-10-17T23:55:09.464Z,101751.94
2022-10-17T23:57:37.462Z,101762.72
